createdAt,value
2023-02-11T00:01:36.882Z,2.33
2023-02-11T00:06:39.869Z,2.27
2023-02-11T00:11:42.717Z,1.90
2023-02-11T00:16:45.643Z,2.32
2023-02-11T00:21:48.733Z,2.58
2023-02-11T00:26:51.703Z,2.16
2023-02-11T00:31:54.642Z,1.91
2023-02-11T00:37:00.111Z,2.37
2023-02-11T00:42:03.403Z,1.79
2023-02-11T00:47:06.327Z,1.84
2023-02-11T00:52:09.276Z,1.89
2023-02-11T00:57:11.988Z,2.23
2023-02-11T01:02:14.892Z,2.20
2023-02-11T01:17:56.382Z,1.30
2023-02-11T01:22:59.073Z,1.08
2023-02-11T01:28:02.026Z,1.83
2023-02-11T01:33:07.078Z,1.61
2023-02-11T01:38:31.660Z,1.85
2023-02-11T01:43:42.894Z,2.31
2023-02-11T01:48:50.732Z,2.52
2023-02-11T01:54:16.980Z,1.79
2023-02-11T01:59:34.985Z,2.11
2023-02-11T02:04:46.359Z,1.88
2023-02-11T02:09:56.828Z,2.18
2023-02-11T02:15:36.893Z,1.92
2023-02-11T02:21:07.481Z,1.88
2023-02-11T02:26:31.781Z,2.08
2023-02-11T02:32:13.375Z,2.23
2023-02-11T02:37:25.103Z,2.41
2023-02-11T02:42:28.352Z,1.88
2023-02-11T02:47:31.371Z,1.62
2023-02-11T02:52:54.045Z,0.91
2023-02-11T02:58:24.196Z,1.30
2023-02-11T03:03:53.147Z,1.42
2023-02-11T03:09:04.362Z,1.22
2023-02-11T03:14:11.051Z,0.63
2023-02-11T03:19:20.249Z,0.34
2023-02-11T03:24:37.937Z,0.62
2023-02-11T03:29:56.144Z,0.79
2023-02-11T03:35:07.435Z,0.65
2023-02-11T03:40:13.846Z,0.96
2023-02-11T03:45:20.315Z,0.90
2023-02-11T03:50:25.352Z,0.42
2023-02-11T03:55:30.220Z,1.09
2023-02-11T04:00:36.923Z,1.46
2023-02-11T04:05:40.270Z,0.99
2023-02-11T04:10:43.107Z,1.19
2023-02-11T04:15:48.545Z,0.71
2023-02-11T04:20:51.914Z,0.82
2023-02-11T04:25:54.828Z,0.56
2023-02-11T04:30:57.765Z,0.11
2023-02-11T04:36:00.680Z,0.25
2023-02-11T04:41:03.579Z,0.08
2023-02-11T04:46:06.437Z,0.74
2023-02-11T04:51:09.167Z,0.91
2023-02-11T04:56:12.227Z,1.75
2023-02-11T05:01:16.073Z,2.42
2023-02-11T05:06:19.421Z,2.16
2023-02-11T05:11:25.147Z,1.92
2023-02-11T05:16:28.593Z,2.13
2023-02-11T05:21:31.673Z,4.02
2023-02-11T05:26:34.523Z,5.64
2023-02-11T05:31:37.395Z,7.13
2023-02-11T05:36:40.522Z,7.48
2023-02-11T05:41:43.294Z,8.92
2023-02-11T05:46:46.178Z,9.22
2023-02-11T05:51:49.315Z,9.78
2023-02-11T05:56:52.469Z,10.67
2023-02-11T06:01:55.495Z,10.53
2023-02-11T06:06:58.348Z,9.12
2023-02-11T06:12:01.167Z,8.01
2023-02-11T06:17:04.736Z,7.84
2023-02-11T06:22:07.741Z,8.41
2023-02-11T06:27:10.875Z,7.00
2023-02-11T06:32:36.872Z,7.82
2023-02-11T06:37:36.836Z,9.53
2023-02-11T06:42:39.933Z,9.05
2023-02-11T06:47:43.071Z,7.98
2023-02-11T06:52:46.271Z,8.99
2023-02-11T06:57:49.057Z,8.73
2023-02-11T07:02:51.933Z,9.33
2023-02-11T07:07:54.945Z,8.98
2023-02-11T07:12:58.898Z,8.86
2023-02-11T07:18:01.704Z,7.03
2023-02-11T07:23:04.789Z,7.06
2023-02-11T07:28:07.542Z,7.86
2023-02-11T07:33:10.328Z,5.71
2023-02-11T07:38:13.125Z,6.80
2023-02-11T07:43:16.223Z,5.90
2023-02-11T07:48:19.203Z,6.88
2023-02-11T07:53:22.380Z,6.23
2023-02-11T07:58:25.401Z,6.24
2023-02-11T08:03:28.735Z,6.30
2023-02-11T08:08:31.567Z,5.95
2023-02-11T08:13:34.678Z,5.44
2023-02-11T08:18:37.668Z,6.61
2023-02-11T08:23:42.622Z,6.06
2023-02-11T08:28:46.663Z,6.52
2023-02-11T08:33:49.971Z,6.09
2023-02-11T08:39:05.612Z,6.12
2023-02-11T08:44:15.048Z,6.47
2023-02-11T08:49:17.998Z,6.46
2023-02-11T08:54:20.961Z,6.30
2023-02-11T08:59:24.334Z,6.98
2023-02-11T09:04:27.199Z,6.86
2023-02-11T09:09:30.299Z,7.54
2023-02-11T09:14:33.355Z,6.75
2023-02-11T09:19:36.334Z,6.55
2023-02-11T09:24:39.212Z,6.55
2023-02-11T09:29:42.116Z,6.80
2023-02-11T09:34:45.080Z,7.13
2023-02-11T09:39:48.016Z,7.70
2023-02-11T09:44:51.255Z,6.84
2023-02-11T09:50:02.979Z,7.86
2023-02-11T09:55:17.470Z,7.96
2023-02-11T10:00:40.324Z,7.98
2023-02-11T10:06:16.635Z,7.76
2023-02-11T10:12:04.808Z,8.03
2023-02-11T10:17:19.111Z,7.67
2023-02-11T10:22:35.659Z,8.71
2023-02-11T10:27:38.596Z,8.51
2023-02-11T10:32:53.825Z,8.70
2023-02-11T10:37:57.179Z,8.19
2023-02-11T10:43:04.337Z,8.79
2023-02-11T10:48:42.633Z,8.39
2023-02-11T10:53:47.450Z,8.33
2023-02-11T10:59:21.749Z,9.11
2023-02-11T11:04:30.831Z,8.64
2023-02-11T11:09:46.141Z,7.92
2023-02-11T11:14:56.841Z,8.94
2023-02-11T11:20:32.397Z,8.85
2023-02-11T11:25:39.083Z,8.76
2023-02-11T11:30:43.515Z,9.01
2023-02-11T11:36:07.100Z,9.11
2023-02-11T11:41:29.412Z,8.56
2023-02-11T11:46:39.510Z,9.13
2023-02-11T11:51:48.160Z,8.78
2023-02-11T11:57:15.537Z,8.72
2023-02-11T12:02:57.392Z,8.98
2023-02-11T12:08:14.313Z,9.38
2023-02-11T12:13:32.258Z,9.39
2023-02-11T12:19:14.930Z,8.69
2023-02-11T12:24:24.425Z,9.01
2023-02-11T12:29:36.240Z,8.84
2023-02-11T12:34:39.183Z,8.54
2023-02-11T12:39:51.466Z,9.25
2023-02-11T12:44:54.101Z,9.08
2023-02-11T12:50:36.496Z,9.19
2023-02-11T12:55:45.043Z,9.05
2023-02-11T13:00:55.588Z,9.12
2023-02-11T13:06:05.647Z,8.83
2023-02-11T13:11:15.294Z,8.38
2023-02-11T13:16:40.844Z,8.44
2023-02-11T13:21:49.992Z,8.63
2023-02-11T13:27:08.097Z,8.27
2023-02-11T13:32:13.700Z,8.39
2023-02-11T13:37:38.904Z,8.53
2023-02-11T13:42:52.875Z,8.57
2023-02-11T13:48:08.538Z,8.65
2023-02-11T13:53:11.507Z,7.85
2023-02-11T13:58:15.624Z,7.87
2023-02-11T14:03:44.237Z,7.70
2023-02-11T14:09:11.863Z,7.02
2023-02-11T14:14:19.122Z,6.90
2023-02-11T14:19:40.237Z,6.89
2023-02-11T14:24:58.142Z,6.81
2023-02-11T14:30:09.783Z,6.52
2023-02-11T14:35:47.688Z,6.17
2023-02-11T14:41:06.934Z,6.07
2023-02-11T14:46:10.371Z,5.82
2023-02-11T14:51:19.841Z,5.45
2023-02-11T14:56:28.398Z,4.98
2023-02-11T15:01:36.914Z,4.69
2023-02-11T15:06:48.163Z,4.96
2023-02-11T15:11:52.508Z,5.00
2023-02-11T15:16:59.159Z,4.58
2023-02-11T15:22:07.893Z,4.83
2023-02-11T15:27:14.860Z,4.22
2023-02-11T15:32:18.016Z,4.53
2023-02-11T15:37:32.183Z,4.04
2023-02-11T15:42:47.378Z,4.16
2023-02-11T15:48:00.500Z,4.18
2023-02-11T15:53:40.845Z,4.57
2023-02-11T15:58:46.996Z,4.15
2023-02-11T16:03:51.454Z,4.12
2023-02-11T16:09:01.664Z,4.21
2023-02-11T16:14:20.135Z,4.54
2023-02-11T16:19:25.887Z,4.73
2023-02-11T16:24:33.838Z,4.31
2023-02-11T16:29:38.220Z,4.19
2023-02-11T16:34:40.846Z,4.06
2023-02-11T16:39:43.804Z,3.64
2023-02-11T16:44:46.807Z,3.54
2023-02-11T16:49:49.993Z,3.42
2023-02-11T16:54:53.293Z,3.46
2023-02-11T16:59:56.253Z,3.52
2023-02-11T17:05:01.653Z,3.40
2023-02-11T17:10:16.547Z,3.50
2023-02-11T17:15:19.441Z,3.13
2023-02-11T17:20:22.530Z,2.58
2023-02-11T17:25:25.338Z,3.28
2023-02-11T17:30:28.088Z,2.97
2023-02-11T17:35:31.012Z,3.32
2023-02-11T17:40:34.080Z,3.10
2023-02-11T17:45:42.589Z,3.46
2023-02-11T17:50:46.067Z,3.36
2023-02-11T17:55:49.356Z,3.10
2023-02-11T18:00:52.631Z,3.62
2023-02-11T18:06:00.700Z,3.66
2023-02-11T18:11:03.829Z,3.66
2023-02-11T18:16:16.049Z,3.62
2023-02-11T18:21:22.101Z,3.42
2023-02-11T18:26:28.471Z,3.29
2023-02-11T18:31:31.786Z,3.11
2023-02-11T18:36:35.884Z,3.27
2023-02-11T18:41:40.323Z,2.99
2023-02-11T18:46:43.253Z,2.83
2023-02-11T18:51:47.586Z,2.97
2023-02-11T18:56:50.439Z,3.10
2023-02-11T19:01:53.382Z,2.93
2023-02-11T19:06:56.373Z,2.88
2023-02-11T19:12:01.184Z,2.85
2023-02-11T19:17:06.911Z,2.95
2023-02-11T19:22:10.907Z,2.61
2023-02-11T19:27:13.924Z,2.90
2023-02-11T19:32:16.987Z,2.71
2023-02-11T19:37:19.920Z,3.29
2023-02-11T19:42:22.777Z,3.03
2023-02-11T19:47:28.087Z,3.00
2023-02-11T19:52:30.986Z,2.55
2023-02-11T19:57:34.202Z,2.50
2023-02-11T20:02:39.802Z,2.41
2023-02-11T20:07:42.611Z,2.27
2023-02-11T20:12:45.299Z,2.36
2023-02-11T20:17:48.233Z,2.59
2023-02-11T20:22:52.352Z,2.89
2023-02-11T20:27:55.353Z,2.82
2023-02-11T20:32:58.837Z,2.70
2023-02-11T20:38:03.300Z,2.44
2023-02-11T20:43:06.082Z,2.59
2023-02-11T20:48:08.969Z,2.00
2023-02-11T20:53:11.831Z,2.18
2023-02-11T20:58:14.590Z,2.32
2023-02-11T21:03:17.470Z,2.25
2023-02-11T21:08:20.350Z,2.48
2023-02-11T21:13:23.183Z,2.59
2023-02-11T21:18:26.394Z,2.60
2023-02-11T21:23:29.709Z,2.80
2023-02-11T21:28:32.918Z,2.36
2023-02-11T21:33:36.143Z,2.25
2023-02-11T21:38:38.946Z,2.35
2023-02-11T21:43:42.203Z,2.14
2023-02-11T21:48:45.051Z,2.20
2023-02-11T21:53:48.553Z,2.15
2023-02-11T21:58:54.361Z,2.15
2023-02-11T22:03:58.048Z,2.13
2023-02-11T22:09:07.960Z,2.28
2023-02-11T22:14:10.732Z,1.90
2023-02-11T22:19:14.605Z,1.87
2023-02-11T22:24:17.707Z,1.61
2023-02-11T22:29:20.626Z,1.56
2023-02-11T22:34:23.304Z,2.11
2023-02-11T22:39:26.239Z,2.00
2023-02-11T22:44:29.065Z,1.98
2023-02-11T22:49:33.462Z,2.07
2023-02-11T22:54:36.566Z,1.76
2023-02-11T22:59:39.493Z,1.40
2023-02-11T23:04:42.342Z,1.48
2023-02-11T23:09:45.457Z,1.42
2023-02-11T23:14:48.484Z,0.87
2023-02-11T23:19:51.523Z,0.44
2023-02-11T23:24:54.578Z,0.84
2023-02-11T23:29:57.703Z,0.76
2023-02-11T23:35:01.052Z,0.59
2023-02-11T23:40:04.540Z,0.47
2023-02-11T23:45:08.771Z,0.47
2023-02-11T23:50:12.489Z,0.34
2023-02-11T23:55:15.213Z,0.19
